sensor_id;sensor_type;location;lat;lon;timestamp;temperature;humidity
33881;DHT22;20172;47.530;10.256;2023-03-03T00:00:31;3.40;99.90
33881;DHT22;20172;47.530;10.256;2023-03-03T00:02:57;3.40;99.90
33881;DHT22;20172;47.530;10.256;2023-03-03T00:05:26;3.40;99.90
33881;DHT22;20172;47.530;10.256;2023-03-03T00:07:51;3.40;99.90
33881;DHT22;20172;47.530;10.256;2023-03-03T00:10:17;3.50;99.90
33881;DHT22;20172;47.530;10.256;2023-03-03T00:12:47;3.50;99.90
33881;DHT22;20172;47.530;10.256;2023-03-03T00:15:16;3.50;99.90
33881;DHT22;20172;47.530;10.256;2023-03-03T00:17:42;3.50;99.90
33881;DHT22;20172;47.530;10.256;2023-03-03T00:22:52;3.40;99.90
33881;DHT22;20172;47.530;10.256;2023-03-03T00:25:30;3.40;99.90
33881;DHT22;20172;47.530;10.256;2023-03-03T00:28:00;3.30;99.90
33881;DHT22;20172;47.530;10.256;2023-03-03T00:30:26;3.20;99.90
33881;DHT22;20172;47.530;10.256;2023-03-03T00:32:52;3.20;99.90
33881;DHT22;20172;47.530;10.256;2023-03-03T00:35:24;3.20;99.90
33881;DHT22;20172;47.530;10.256;2023-03-03T00:37:54;3.30;99.90
33881;DHT22;20172;47.530;10.256;2023-03-03T00:40:21;3.30;99.90
33881;DHT22;20172;47.530;10.256;2023-03-03T00:42:49;3.30;99.90
33881;DHT22;20172;47.530;10.256;2023-03-03T00:48:07;3.30;99.90
33881;DHT22;20172;47.530;10.256;2023-03-03T00:50:34;3.30;99.90
33881;DHT22;20172;47.530;10.256;2023-03-03T00:53:09;3.20;99.90
33881;DHT22;20172;47.530;10.256;2023-03-03T00:55:36;3.20;99.90
33881;DHT22;20172;47.530;10.256;2023-03-03T00:58:02;3.20;99.90
33881;DHT22;20172;47.530;10.256;2023-03-03T01:00:27;3.10;99.90
33881;DHT22;20172;47.530;10.256;2023-03-03T01:02:53;3.10;99.90
33881;DHT22;20172;47.530;10.256;2023-03-03T01:05:19;3.10;99.90
33881;DHT22;20172;47.530;10.256;2023-03-03T01:07:45;3.10;99.90
33881;DHT22;20172;47.530;10.256;2023-03-03T01:10:11;3.10;99.90
33881;DHT22;20172;47.530;10.256;2023-03-03T01:12:37;3.10;99.90
33881;DHT22;20172;47.530;10.256;2023-03-03T01:15:05;3.10;99.90
33881;DHT22;20172;47.530;10.256;2023-03-03T01:17:32;3.00;99.90
33881;DHT22;20172;47.530;10.256;2023-03-03T01:19:58;3.00;99.90
33881;DHT22;20172;47.530;10.256;2023-03-03T01:22:24;3.00;99.90
33881;DHT22;20172;47.530;10.256;2023-03-03T01:24:50;3.00;99.90
33881;DHT22;20172;47.530;10.256;2023-03-03T01:27:16;2.90;99.90
33881;DHT22;20172;47.530;10.256;2023-03-03T01:29:42;3.00;99.90
33881;DHT22;20172;47.530;10.256;2023-03-03T01:32:07;3.00;99.90
33881;DHT22;20172;47.530;10.256;2023-03-03T01:34:33;3.00;99.90
33881;DHT22;20172;47.530;10.256;2023-03-03T01:36:58;3.10;99.90
33881;DHT22;20172;47.530;10.256;2023-03-03T01:39:25;2.90;99.90
33881;DHT22;20172;47.530;10.256;2023-03-03T01:41:51;2.90;99.90
33881;DHT22;20172;47.530;10.256;2023-03-03T01:44:16;2.80;99.90
33881;DHT22;20172;47.530;10.256;2023-03-03T01:46:47;2.80;99.90
33881;DHT22;20172;47.530;10.256;2023-03-03T01:51:51;2.80;99.90
33881;DHT22;20172;47.530;10.256;2023-03-03T01:54:26;2.90;99.90
33881;DHT22;20172;47.530;10.256;2023-03-03T01:56:54;2.80;99.90
33881;DHT22;20172;47.530;10.256;2023-03-03T01:59:22;2.80;99.90
33881;DHT22;20172;47.530;10.256;2023-03-03T02:01:49;2.80;99.90
33881;DHT22;20172;47.530;10.256;2023-03-03T02:04:15;2.80;99.90
33881;DHT22;20172;47.530;10.256;2023-03-03T02:06:43;2.80;99.90
33881;DHT22;20172;47.530;10.256;2023-03-03T02:09:11;2.80;99.90
33881;DHT22;20172;47.530;10.256;2023-03-03T02:11:39;2.80;99.90
33881;DHT22;20172;47.530;10.256;2023-03-03T02:14:07;2.80;99.90
33881;DHT22;20172;47.530;10.256;2023-03-03T02:16:33;2.70;99.90
33881;DHT22;20172;47.530;10.256;2023-03-03T02:18:59;2.70;99.90
33881;DHT22;20172;47.530;10.256;2023-03-03T02:21:24;2.80;99.90
33881;DHT22;20172;47.530;10.256;2023-03-03T02:26:38;2.80;99.90
33881;DHT22;20172;47.530;10.256;2023-03-03T02:29:04;2.80;99.90
33881;DHT22;20172;47.530;10.256;2023-03-03T02:31:30;2.80;99.90
33881;DHT22;20172;47.530;10.256;2023-03-03T02:33:56;2.80;99.90
33881;DHT22;20172;47.530;10.256;2023-03-03T02:36:23;2.80;99.90
33881;DHT22;20172;47.530;10.256;2023-03-03T02:41:20;2.90;99.90
33881;DHT22;20172;47.530;10.256;2023-03-03T02:46:18;3.10;99.90
33881;DHT22;20172;47.530;10.256;2023-03-03T02:48:44;3.10;99.90
33881;DHT22;20172;47.530;10.256;2023-03-03T02:51:09;3.10;99.90
33881;DHT22;20172;47.530;10.256;2023-03-03T02:53:35;3.20;99.90
33881;DHT22;20172;47.530;10.256;2023-03-03T02:56:01;3.20;99.90
33881;DHT22;20172;47.530;10.256;2023-03-03T02:58:28;3.20;99.90
33881;DHT22;20172;47.530;10.256;2023-03-03T03:00:54;3.20;99.90
33881;DHT22;20172;47.530;10.256;2023-03-03T03:03:20;3.50;99.90
33881;DHT22;20172;47.530;10.256;2023-03-03T03:05:45;3.50;99.90
33881;DHT22;20172;47.530;10.256;2023-03-03T03:08:12;3.40;99.90
33881;DHT22;20172;47.530;10.256;2023-03-03T03:10:37;3.40;99.90
33881;DHT22;20172;47.530;10.256;2023-03-03T03:13:03;3.30;99.90
33881;DHT22;20172;47.530;10.256;2023-03-03T03:15:30;3.20;99.90
33881;DHT22;20172;47.530;10.256;2023-03-03T03:17:56;3.20;99.90
33881;DHT22;20172;47.530;10.256;2023-03-03T03:20:21;3.10;99.90
33881;DHT22;20172;47.530;10.256;2023-03-03T03:22:47;3.00;99.90
33881;DHT22;20172;47.530;10.256;2023-03-03T03:25:12;3.30;99.90
33881;DHT22;20172;47.530;10.256;2023-03-03T03:27:38;3.30;99.90
33881;DHT22;20172;47.530;10.256;2023-03-03T03:30:04;3.30;99.90
33881;DHT22;20172;47.530;10.256;2023-03-03T03:32:29;3.30;99.90
33881;DHT22;20172;47.530;10.256;2023-03-03T03:34:55;3.10;99.90
33881;DHT22;20172;47.530;10.256;2023-03-03T03:37:20;3.00;99.90
33881;DHT22;20172;47.530;10.256;2023-03-03T03:39:46;2.90;99.90
33881;DHT22;20172;47.530;10.256;2023-03-03T03:42:11;2.80;99.90
33881;DHT22;20172;47.530;10.256;2023-03-03T03:44:37;2.80;99.90
33881;DHT22;20172;47.530;10.256;2023-03-03T03:47:02;2.90;99.90
33881;DHT22;20172;47.530;10.256;2023-03-03T03:49:28;3.00;99.90
33881;DHT22;20172;47.530;10.256;2023-03-03T03:51:53;2.80;99.90
33881;DHT22;20172;47.530;10.256;2023-03-03T03:54:19;2.90;99.90
33881;DHT22;20172;47.530;10.256;2023-03-03T03:56:44;2.80;99.90
33881;DHT22;20172;47.530;10.256;2023-03-03T03:59:10;2.70;99.90
33881;DHT22;20172;47.530;10.256;2023-03-03T04:01:36;2.80;99.90
33881;DHT22;20172;47.530;10.256;2023-03-03T04:04:01;2.80;99.90
33881;DHT22;20172;47.530;10.256;2023-03-03T04:06:28;2.80;99.90
33881;DHT22;20172;47.530;10.256;2023-03-03T04:08:54;2.70;99.90
33881;DHT22;20172;47.530;10.256;2023-03-03T04:11:19;2.60;99.90
33881;DHT22;20172;47.530;10.256;2023-03-03T04:13:45;2.60;99.90
33881;DHT22;20172;47.530;10.256;2023-03-03T04:16:10;2.70;99.90
33881;DHT22;20172;47.530;10.256;2023-03-03T04:18:36;2.60;99.90
33881;DHT22;20172;47.530;10.256;2023-03-03T04:21:01;2.70;99.90
33881;DHT22;20172;47.530;10.256;2023-03-03T04:23:27;2.70;99.90
33881;DHT22;20172;47.530;10.256;2023-03-03T04:25:52;2.70;99.90
33881;DHT22;20172;47.530;10.256;2023-03-03T04:28:18;2.60;99.90
33881;DHT22;20172;47.530;10.256;2023-03-03T04:30:43;2.60;99.90
33881;DHT22;20172;47.530;10.256;2023-03-03T04:33:09;2.60;99.90
33881;DHT22;20172;47.530;10.256;2023-03-03T04:35:34;2.60;99.90
33881;DHT22;20172;47.530;10.256;2023-03-03T04:38:00;2.40;99.90
33881;DHT22;20172;47.530;10.256;2023-03-03T04:40:25;2.50;99.90
33881;DHT22;20172;47.530;10.256;2023-03-03T04:42:51;2.50;99.90
33881;DHT22;20172;47.530;10.256;2023-03-03T04:45:17;2.60;99.90
33881;DHT22;20172;47.530;10.256;2023-03-03T04:47:42;2.50;99.90
33881;DHT22;20172;47.530;10.256;2023-03-03T04:50:08;2.40;99.90
33881;DHT22;20172;47.530;10.256;2023-03-03T04:52:34;2.40;99.90
33881;DHT22;20172;47.530;10.256;2023-03-03T04:55:00;2.30;99.90
33881;DHT22;20172;47.530;10.256;2023-03-03T04:57:25;2.30;99.90
33881;DHT22;20172;47.530;10.256;2023-03-03T04:59:51;2.40;99.90
33881;DHT22;20172;47.530;10.256;2023-03-03T05:02:16;2.40;99.90
33881;DHT22;20172;47.530;10.256;2023-03-03T05:04:42;2.40;99.90
33881;DHT22;20172;47.530;10.256;2023-03-03T05:07:08;2.30;99.90
33881;DHT22;20172;47.530;10.256;2023-03-03T05:09:34;2.40;99.90
33881;DHT22;20172;47.530;10.256;2023-03-03T05:11:59;2.60;99.90
33881;DHT22;20172;47.530;10.256;2023-03-03T05:14:25;2.50;99.90
33881;DHT22;20172;47.530;10.256;2023-03-03T05:16:51;2.30;99.90
33881;DHT22;20172;47.530;10.256;2023-03-03T05:19:16;2.30;99.90
33881;DHT22;20172;47.530;10.256;2023-03-03T05:21:42;2.10;99.90
33881;DHT22;20172;47.530;10.256;2023-03-03T05:24:08;2.10;99.90
33881;DHT22;20172;47.530;10.256;2023-03-03T05:26:33;2.10;99.90
33881;DHT22;20172;47.530;10.256;2023-03-03T05:28:59;2.10;99.90
33881;DHT22;20172;47.530;10.256;2023-03-03T05:31:25;2.10;99.90
33881;DHT22;20172;47.530;10.256;2023-03-03T05:33:52;2.10;99.90
33881;DHT22;20172;47.530;10.256;2023-03-03T05:36:17;2.00;99.90
33881;DHT22;20172;47.530;10.256;2023-03-03T05:38:43;2.00;99.90
33881;DHT22;20172;47.530;10.256;2023-03-03T05:41:09;2.20;99.90
33881;DHT22;20172;47.530;10.256;2023-03-03T05:43:34;2.30;99.90
33881;DHT22;20172;47.530;10.256;2023-03-03T05:46:00;2.20;99.90
33881;DHT22;20172;47.530;10.256;2023-03-03T05:48:25;2.00;99.90
33881;DHT22;20172;47.530;10.256;2023-03-03T05:50:51;1.90;99.90
33881;DHT22;20172;47.530;10.256;2023-03-03T05:53:17;1.80;99.90
33881;DHT22;20172;47.530;10.256;2023-03-03T05:55:42;1.90;99.90
33881;DHT22;20172;47.530;10.256;2023-03-03T05:58:08;1.80;99.90
33881;DHT22;20172;47.530;10.256;2023-03-03T06:00:33;1.80;99.90
33881;DHT22;20172;47.530;10.256;2023-03-03T06:02:59;1.70;99.90
33881;DHT22;20172;47.530;10.256;2023-03-03T06:05:25;1.80;99.90
33881;DHT22;20172;47.530;10.256;2023-03-03T06:07:50;1.80;99.90
33881;DHT22;20172;47.530;10.256;2023-03-03T06:10:16;1.80;99.90
33881;DHT22;20172;47.530;10.256;2023-03-03T06:12:42;1.80;99.90
33881;DHT22;20172;47.530;10.256;2023-03-03T06:15:08;1.80;99.90
33881;DHT22;20172;47.530;10.256;2023-03-03T06:17:34;1.80;99.90
33881;DHT22;20172;47.530;10.256;2023-03-03T06:20:00;1.80;99.90
33881;DHT22;20172;47.530;10.256;2023-03-03T06:22:26;1.90;99.90
33881;DHT22;20172;47.530;10.256;2023-03-03T06:24:51;1.80;99.90
33881;DHT22;20172;47.530;10.256;2023-03-03T06:27:17;1.80;99.90
33881;DHT22;20172;47.530;10.256;2023-03-03T06:29:43;1.80;99.90
33881;DHT22;20172;47.530;10.256;2023-03-03T06:32:09;1.70;99.90
33881;DHT22;20172;47.530;10.256;2023-03-03T06:34:34;1.80;99.90
33881;DHT22;20172;47.530;10.256;2023-03-03T06:37:00;1.80;99.90
33881;DHT22;20172;47.530;10.256;2023-03-03T06:39:25;1.80;99.90
33881;DHT22;20172;47.530;10.256;2023-03-03T06:41:51;1.90;99.90
33881;DHT22;20172;47.530;10.256;2023-03-03T06:44:16;1.80;99.90
33881;DHT22;20172;47.530;10.256;2023-03-03T06:46:42;1.90;99.90
33881;DHT22;20172;47.530;10.256;2023-03-03T06:49:08;2.00;99.90
33881;DHT22;20172;47.530;10.256;2023-03-03T06:51:34;1.90;99.90
33881;DHT22;20172;47.530;10.256;2023-03-03T06:54:10;1.70;99.90
33881;DHT22;20172;47.530;10.256;2023-03-03T06:56:36;1.80;99.90
33881;DHT22;20172;47.530;10.256;2023-03-03T06:59:05;1.90;99.90
33881;DHT22;20172;47.530;10.256;2023-03-03T07:01:35;2.10;99.90
33881;DHT22;20172;47.530;10.256;2023-03-03T07:04:24;2.20;99.90
33881;DHT22;20172;47.530;10.256;2023-03-03T07:06:49;2.40;99.90
33881;DHT22;20172;47.530;10.256;2023-03-03T07:09:23;2.60;99.90
33881;DHT22;20172;47.530;10.256;2023-03-03T07:11:49;2.70;99.90
33881;DHT22;20172;47.530;10.256;2023-03-03T07:14:17;2.90;99.90
33881;DHT22;20172;47.530;10.256;2023-03-03T07:16:43;3.00;99.90
33881;DHT22;20172;47.530;10.256;2023-03-03T07:19:23;3.10;99.90
33881;DHT22;20172;47.530;10.256;2023-03-03T07:21:51;3.20;99.90
33881;DHT22;20172;47.530;10.256;2023-03-03T07:26:47;3.50;99.90
33881;DHT22;20172;47.530;10.256;2023-03-03T07:31:39;3.80;99.90
33881;DHT22;20172;47.530;10.256;2023-03-03T07:36:49;3.90;99.90
33881;DHT22;20172;47.530;10.256;2023-03-03T07:41:50;4.10;99.90
33881;DHT22;20172;47.530;10.256;2023-03-03T07:44:28;4.20;99.90
33881;DHT22;20172;47.530;10.256;2023-03-03T07:46:58;4.50;99.90
33881;DHT22;20172;47.530;10.256;2023-03-03T07:49:36;4.60;99.90
33881;DHT22;20172;47.530;10.256;2023-03-03T07:54:43;5.00;99.90
33881;DHT22;20172;47.530;10.256;2023-03-03T07:59:36;4.90;99.90
33881;DHT22;20172;47.530;10.256;2023-03-03T08:02:01;5.00;99.90
33881;DHT22;20172;47.530;10.256;2023-03-03T08:04:45;5.20;99.90
33881;DHT22;20172;47.530;10.256;2023-03-03T08:07:18;5.60;99.90
33881;DHT22;20172;47.530;10.256;2023-03-03T08:12:13;6.20;99.90
33881;DHT22;20172;47.530;10.256;2023-03-03T08:14:42;6.30;99.90
33881;DHT22;20172;47.530;10.256;2023-03-03T08:17:21;6.40;99.90
33881;DHT22;20172;47.530;10.256;2023-03-03T08:19:48;6.40;99.90
33881;DHT22;20172;47.530;10.256;2023-03-03T08:22:16;6.40;99.90
33881;DHT22;20172;47.530;10.256;2023-03-03T08:24:42;6.40;99.90
33881;DHT22;20172;47.530;10.256;2023-03-03T08:27:08;6.50;99.90
33881;DHT22;20172;47.530;10.256;2023-03-03T08:29:33;6.60;99.90
33881;DHT22;20172;47.530;10.256;2023-03-03T08:31:59;6.50;99.90
33881;DHT22;20172;47.530;10.256;2023-03-03T08:34:24;6.40;99.90
33881;DHT22;20172;47.530;10.256;2023-03-03T08:36:50;6.40;99.90
33881;DHT22;20172;47.530;10.256;2023-03-03T08:39:15;6.50;99.90
33881;DHT22;20172;47.530;10.256;2023-03-03T08:41:41;6.50;99.90
33881;DHT22;20172;47.530;10.256;2023-03-03T08:44:09;6.50;99.90
33881;DHT22;20172;47.530;10.256;2023-03-03T08:46:35;6.50;99.90
33881;DHT22;20172;47.530;10.256;2023-03-03T08:49:00;6.60;99.90
33881;DHT22;20172;47.530;10.256;2023-03-03T08:51:32;6.50;99.90
33881;DHT22;20172;47.530;10.256;2023-03-03T08:54:00;6.60;99.90
33881;DHT22;20172;47.530;10.256;2023-03-03T08:56:26;6.80;99.90
33881;DHT22;20172;47.530;10.256;2023-03-03T08:58:53;6.90;99.90
33881;DHT22;20172;47.530;10.256;2023-03-03T09:01:18;6.80;99.90
33881;DHT22;20172;47.530;10.256;2023-03-03T09:03:44;6.80;99.90
33881;DHT22;20172;47.530;10.256;2023-03-03T09:06:10;6.80;99.90
33881;DHT22;20172;47.530;10.256;2023-03-03T09:08:36;6.80;99.90
33881;DHT22;20172;47.530;10.256;2023-03-03T09:11:02;6.90;99.90
33881;DHT22;20172;47.530;10.256;2023-03-03T09:13:28;7.10;99.90
33881;DHT22;20172;47.530;10.256;2023-03-03T09:15:55;7.00;99.90
33881;DHT22;20172;47.530;10.256;2023-03-03T09:20:54;7.30;99.90
33881;DHT22;20172;47.530;10.256;2023-03-03T09:23:29;7.50;99.90
33881;DHT22;20172;47.530;10.256;2023-03-03T09:25:55;7.60;99.90
33881;DHT22;20172;47.530;10.256;2023-03-03T09:28:25;7.60;99.90
33881;DHT22;20172;47.530;10.256;2023-03-03T09:30:51;7.80;99.90
33881;DHT22;20172;47.530;10.256;2023-03-03T09:35:46;7.90;99.90
33881;DHT22;20172;47.530;10.256;2023-03-03T09:38:47;7.80;99.90
33881;DHT22;20172;47.530;10.256;2023-03-03T09:46:05;8.00;99.90
33881;DHT22;20172;47.530;10.256;2023-03-03T09:48:54;8.10;99.90
33881;DHT22;20172;47.530;10.256;2023-03-03T09:56:34;8.60;99.90
33881;DHT22;20172;47.530;10.256;2023-03-03T10:01:55;8.80;99.90
33881;DHT22;20172;47.530;10.256;2023-03-03T10:06:48;8.90;99.90
33881;DHT22;20172;47.530;10.256;2023-03-03T10:17:10;8.80;99.90
33881;DHT22;20172;47.530;10.256;2023-03-03T10:19:45;8.80;99.90
33881;DHT22;20172;47.530;10.256;2023-03-03T10:24:52;8.70;99.90
33881;DHT22;20172;47.530;10.256;2023-03-03T10:28:24;8.80;99.90
33881;DHT22;20172;47.530;10.256;2023-03-03T10:35:23;8.80;99.90
33881;DHT22;20172;47.530;10.256;2023-03-03T10:50:19;8.60;99.90
33881;DHT22;20172;47.530;10.256;2023-03-03T10:52:47;8.60;99.90
33881;DHT22;20172;47.530;10.256;2023-03-03T11:07:54;19.90;90.20
33881;DHT22;20172;47.530;10.256;2023-03-03T11:39:09;28.10;47.50
33881;DHT22;20172;47.530;10.256;2023-03-03T11:41:39;28.00;46.20
33881;DHT22;20172;47.530;10.256;2023-03-03T11:44:19;28.90;44.80
33881;DHT22;20172;47.530;10.256;2023-03-03T11:46:53;29.10;43.90
33881;DHT22;20172;47.530;10.256;2023-03-03T11:49:27;29.20;43.80
33881;DHT22;20172;47.530;10.256;2023-03-03T11:57:13;30.40;41.40
33881;DHT22;20172;47.530;10.256;2023-03-03T11:59:54;30.80;41.10
33881;DHT22;20172;47.530;10.256;2023-03-03T12:15:03;26.40;45.00
33881;DHT22;20172;47.530;10.256;2023-03-03T12:17:57;26.70;44.40
33881;DHT22;20172;47.530;10.256;2023-03-03T12:40:32;28.60;41.50
33881;DHT22;20172;47.530;10.256;2023-03-03T12:45:54;28.30;41.60
33881;DHT22;20172;47.530;10.256;2023-03-03T12:58:44;26.50;42.10
33881;DHT22;20172;47.530;10.256;2023-03-03T13:03:48;24.00;44.90
33881;DHT22;20172;47.530;10.256;2023-03-03T13:06:26;22.40;46.00
33881;DHT22;20172;47.530;10.256;2023-03-03T13:08:59;20.50;48.40
33881;DHT22;20172;47.530;10.256;2023-03-03T13:16:40;16.40;54.90
33881;DHT22;20172;47.530;10.256;2023-03-03T13:19:10;15.60;56.80
33881;DHT22;20172;47.530;10.256;2023-03-03T13:24:27;14.00;60.00
33881;DHT22;20172;47.530;10.256;2023-03-03T13:27:00;13.40;61.90
33881;DHT22;20172;47.530;10.256;2023-03-03T13:30:02;13.00;63.80
33881;DHT22;20172;47.530;10.256;2023-03-03T13:32:24;12.60;65.20
33881;DHT22;20172;47.530;10.256;2023-03-03T13:35:13;12.30;67.00
33881;DHT22;20172;47.530;10.256;2023-03-03T13:37:43;12.10;68.30
33881;DHT22;20172;47.530;10.256;2023-03-03T13:42:44;11.40;70.90
33881;DHT22;20172;47.530;10.256;2023-03-03T13:55:31;10.80;75.80
33881;DHT22;20172;47.530;10.256;2023-03-03T13:58:12;10.80;77.00
33881;DHT22;20172;47.530;10.256;2023-03-03T14:18:54;9.90;85.50
33881;DHT22;20172;47.530;10.256;2023-03-03T14:21:32;9.80;86.30
33881;DHT22;20172;47.530;10.256;2023-03-03T14:24:13;9.70;87.30
33881;DHT22;20172;47.530;10.256;2023-03-03T14:26:48;9.50;88.30
33881;DHT22;20172;47.530;10.256;2023-03-03T14:31:45;9.40;90.30
33881;DHT22;20172;47.530;10.256;2023-03-03T14:39:40;9.40;91.00
33881;DHT22;20172;47.530;10.256;2023-03-03T14:44:53;9.30;91.80
33881;DHT22;20172;47.530;10.256;2023-03-03T14:47:23;9.20;92.40
33881;DHT22;20172;47.530;10.256;2023-03-03T14:49:49;9.20;92.80
33881;DHT22;20172;47.530;10.256;2023-03-03T14:54:43;9.20;93.40
33881;DHT22;20172;47.530;10.256;2023-03-03T15:04:46;9.10;94.30
33881;DHT22;20172;47.530;10.256;2023-03-03T15:09:48;9.10;95.00
33881;DHT22;20172;47.530;10.256;2023-03-03T15:12:21;9.10;95.20
33881;DHT22;20172;47.530;10.256;2023-03-03T15:14:48;8.90;95.60
33881;DHT22;20172;47.530;10.256;2023-03-03T15:27:48;8.40;98.20
33881;DHT22;20172;47.530;10.256;2023-03-03T15:33:29;8.30;99.30
33881;DHT22;20172;47.530;10.256;2023-03-03T15:36:03;8.10;99.90
33881;DHT22;20172;47.530;10.256;2023-03-03T15:43:57;8.10;99.90
33881;DHT22;20172;47.530;10.256;2023-03-03T15:54:13;8.20;99.90
33881;DHT22;20172;47.530;10.256;2023-03-03T15:56:47;8.10;99.90
33881;DHT22;20172;47.530;10.256;2023-03-03T16:04:19;7.80;99.90
33881;DHT22;20172;47.530;10.256;2023-03-03T16:07:09;7.80;99.90
33881;DHT22;20172;47.530;10.256;2023-03-03T16:09:59;7.70;99.90
33881;DHT22;20172;47.530;10.256;2023-03-03T16:12:31;7.80;99.90
33881;DHT22;20172;47.530;10.256;2023-03-03T16:15:03;7.70;99.90
33881;DHT22;20172;47.530;10.256;2023-03-03T16:20:22;7.60;99.90
33881;DHT22;20172;47.530;10.256;2023-03-03T16:28:25;7.40;99.90
33881;DHT22;20172;47.530;10.256;2023-03-03T16:35:54;7.30;99.90
33881;DHT22;20172;47.530;10.256;2023-03-03T16:38:39;7.30;99.90
33881;DHT22;20172;47.530;10.256;2023-03-03T16:41:12;7.30;99.90
33881;DHT22;20172;47.530;10.256;2023-03-03T16:46:46;7.20;99.90
33881;DHT22;20172;47.530;10.256;2023-03-03T16:51:50;7.00;99.90
33881;DHT22;20172;47.530;10.256;2023-03-03T16:54:19;7.10;99.90
33881;DHT22;20172;47.530;10.256;2023-03-03T16:57:10;7.10;99.90
33881;DHT22;20172;47.530;10.256;2023-03-03T17:13:39;6.70;99.90
33881;DHT22;20172;47.530;10.256;2023-03-03T17:29:40;6.80;99.90
33881;DHT22;20172;47.530;10.256;2023-03-03T17:40:19;6.50;99.90
33881;DHT22;20172;47.530;10.256;2023-03-03T17:43:04;6.50;99.90
33881;DHT22;20172;47.530;10.256;2023-03-03T17:45:33;6.50;99.90
33881;DHT22;20172;47.530;10.256;2023-03-03T17:48:18;6.50;99.90
33881;DHT22;20172;47.530;10.256;2023-03-03T17:51:06;6.50;99.90
33881;DHT22;20172;47.530;10.256;2023-03-03T18:17:10;6.10;99.90
33881;DHT22;20172;47.530;10.256;2023-03-03T18:22:17;6.10;99.90
33881;DHT22;20172;47.530;10.256;2023-03-03T18:30:49;6.10;99.90
33881;DHT22;20172;47.530;10.256;2023-03-03T18:37:48;6.40;99.90
33881;DHT22;20172;47.530;10.256;2023-03-03T18:40:18;6.40;99.90
33881;DHT22;20172;47.530;10.256;2023-03-03T18:42:45;6.50;99.90
33881;DHT22;20172;47.530;10.256;2023-03-03T18:50:32;6.40;99.90
33881;DHT22;20172;47.530;10.256;2023-03-03T18:55:34;6.60;99.90
33881;DHT22;20172;47.530;10.256;2023-03-03T19:03:24;6.50;99.90
33881;DHT22;20172;47.530;10.256;2023-03-03T19:05:50;6.50;99.90
33881;DHT22;20172;47.530;10.256;2023-03-03T19:11:26;6.40;99.90
33881;DHT22;20172;47.530;10.256;2023-03-03T19:13:52;6.40;99.90
33881;DHT22;20172;47.530;10.256;2023-03-03T19:16:36;6.40;99.90
33881;DHT22;20172;47.530;10.256;2023-03-03T19:19:03;6.20;99.90
33881;DHT22;20172;47.530;10.256;2023-03-03T19:21:32;6.20;99.90
33881;DHT22;20172;47.530;10.256;2023-03-03T19:23:59;6.10;99.90
33881;DHT22;20172;47.530;10.256;2023-03-03T19:31:28;6.30;99.90
33881;DHT22;20172;47.530;10.256;2023-03-03T19:36:50;6.20;99.90
33881;DHT22;20172;47.530;10.256;2023-03-03T19:44:30;6.20;99.90
33881;DHT22;20172;47.530;10.256;2023-03-03T19:47:04;6.20;99.90
33881;DHT22;20172;47.530;10.256;2023-03-03T20:05:12;5.90;99.90
33881;DHT22;20172;47.530;10.256;2023-03-03T20:15:16;5.60;99.90
33881;DHT22;20172;47.530;10.256;2023-03-03T20:23:05;5.40;99.90
33881;DHT22;20172;47.530;10.256;2023-03-03T20:25:57;5.40;99.90
33881;DHT22;20172;47.530;10.256;2023-03-03T20:36:51;5.10;99.90
33881;DHT22;20172;47.530;10.256;2023-03-03T20:49:36;4.90;99.90
33881;DHT22;20172;47.530;10.256;2023-03-03T20:54:44;4.90;99.90
33881;DHT22;20172;47.530;10.256;2023-03-03T21:04:44;4.90;99.90
33881;DHT22;20172;47.530;10.256;2023-03-03T21:07:22;4.90;99.90
33881;DHT22;20172;47.530;10.256;2023-03-03T21:09:48;4.90;99.90
33881;DHT22;20172;47.530;10.256;2023-03-03T21:14:59;4.80;99.90
33881;DHT22;20172;47.530;10.256;2023-03-03T21:17:26;4.90;99.90
33881;DHT22;20172;47.530;10.256;2023-03-03T21:19:52;4.90;99.90
33881;DHT22;20172;47.530;10.256;2023-03-03T21:22:18;4.90;99.90
33881;DHT22;20172;47.530;10.256;2023-03-03T21:30:11;5.00;99.90
33881;DHT22;20172;47.530;10.256;2023-03-03T21:32:37;5.00;99.90
33881;DHT22;20172;47.530;10.256;2023-03-03T21:35:08;5.00;99.90
33881;DHT22;20172;47.530;10.256;2023-03-03T21:38:07;5.10;99.90
33881;DHT22;20172;47.530;10.256;2023-03-03T21:40:28;5.10;99.90
33881;DHT22;20172;47.530;10.256;2023-03-03T21:43:00;5.10;99.90
33881;DHT22;20172;47.530;10.256;2023-03-03T21:45:26;5.10;99.90
33881;DHT22;20172;47.530;10.256;2023-03-03T21:47:54;5.10;99.90
33881;DHT22;20172;47.530;10.256;2023-03-03T21:50:22;5.10;99.90
33881;DHT22;20172;47.530;10.256;2023-03-03T21:52:47;5.20;99.90
33881;DHT22;20172;47.530;10.256;2023-03-03T21:55:13;5.20;99.90
33881;DHT22;20172;47.530;10.256;2023-03-03T21:57:38;5.30;99.90
33881;DHT22;20172;47.530;10.256;2023-03-03T22:00:05;5.30;99.90
33881;DHT22;20172;47.530;10.256;2023-03-03T22:02:30;5.30;99.90
33881;DHT22;20172;47.530;10.256;2023-03-03T22:04:56;5.30;99.90
33881;DHT22;20172;47.530;10.256;2023-03-03T22:07:21;5.30;99.90
33881;DHT22;20172;47.530;10.256;2023-03-03T22:09:48;5.30;99.90
33881;DHT22;20172;47.530;10.256;2023-03-03T22:12:14;5.30;99.90
33881;DHT22;20172;47.530;10.256;2023-03-03T22:14:39;5.30;99.90
33881;DHT22;20172;47.530;10.256;2023-03-03T22:17:05;5.30;99.90
33881;DHT22;20172;47.530;10.256;2023-03-03T22:19:30;5.40;99.90
33881;DHT22;20172;47.530;10.256;2023-03-03T22:21:58;5.40;99.90
33881;DHT22;20172;47.530;10.256;2023-03-03T22:24:24;5.40;99.90
33881;DHT22;20172;47.530;10.256;2023-03-03T22:26:49;5.30;99.90
33881;DHT22;20172;47.530;10.256;2023-03-03T22:29:15;5.20;99.90
33881;DHT22;20172;47.530;10.256;2023-03-03T22:31:41;5.30;99.90
33881;DHT22;20172;47.530;10.256;2023-03-03T22:34:07;5.30;99.90
33881;DHT22;20172;47.530;10.256;2023-03-03T22:36:32;5.20;99.90
33881;DHT22;20172;47.530;10.256;2023-03-03T22:38:58;5.30;99.90
33881;DHT22;20172;47.530;10.256;2023-03-03T22:41:25;5.20;99.90
33881;DHT22;20172;47.530;10.256;2023-03-03T22:43:50;5.10;99.90
33881;DHT22;20172;47.530;10.256;2023-03-03T22:46:16;5.10;99.90
33881;DHT22;20172;47.530;10.256;2023-03-03T22:48:42;5.10;99.90
33881;DHT22;20172;47.530;10.256;2023-03-03T22:51:07;5.00;99.90
33881;DHT22;20172;47.530;10.256;2023-03-03T22:53:33;4.90;99.90
33881;DHT22;20172;47.530;10.256;2023-03-03T22:55:58;4.90;99.90
33881;DHT22;20172;47.530;10.256;2023-03-03T22:58:24;4.80;99.90
33881;DHT22;20172;47.530;10.256;2023-03-03T23:00:51;4.70;99.90
33881;DHT22;20172;47.530;10.256;2023-03-03T23:03:16;4.70;99.90
33881;DHT22;20172;47.530;10.256;2023-03-03T23:05:42;4.60;99.90
33881;DHT22;20172;47.530;10.256;2023-03-03T23:08:09;4.50;99.90
33881;DHT22;20172;47.530;10.256;2023-03-03T23:10:35;4.50;99.90
33881;DHT22;20172;47.530;10.256;2023-03-03T23:13:00;4.50;99.90
33881;DHT22;20172;47.530;10.256;2023-03-03T23:15:26;4.40;99.90